ZSJAR FAPE-FAWB
Flight info
| Callsign | ZSJAR |
|---|---|
| Flight time | N/A |
| Altitude | 26000 |
| Route | EGTIM UW81 BLV UW95 GAV UA405 UTRUK |
| Aircraft | PC12/L-SDFGRWY/S |
Departure
| Time | N/A |
|---|---|
| Airport | Chief Dawid Stuurman International Airport (FAPE) |
Arrival
| Time | 2026-04-30 18:49 |
|---|---|
| Airport | Wonderboom Airport (FAWB) |
| Time | Latitude | Longitude | Altitude | Speed | Heading |
|---|---|---|---|---|---|
| 2026-04-30 17:39 | -29.38518 | 26.25011 | 26183 ft | 191 kts | 356° |
| 2026-04-30 17:41 | -29.28063 | 26.26874 | 26197 ft | 191 kts | 356° |
| 2026-04-30 17:42 | -29.25438 | 26.27339 | 26202 ft | 191 kts | 356° |
| 2026-04-30 17:42 | -29.21808 | 26.27984 | 26205 ft | 192 kts | 356° |
| 2026-04-30 17:43 | -29.19183 | 26.28451 | 26209 ft | 192 kts | 356° |
| 2026-04-30 17:44 | -29.15227 | 26.29156 | 26210 ft | 191 kts | 356° |
| 2026-04-30 17:44 | -29.11294 | 26.29855 | 26212 ft | 190 kts | 356° |
| 2026-04-30 17:46 | -29.04789 | 26.31813 | 26206 ft | 194 kts | 3° |
| 2026-04-30 17:47 | -28.99613 | 26.33529 | 26205 ft | 193 kts | 3° |
| 2026-04-30 17:48 | -28.94875 | 26.35092 | 26204 ft | 195 kts | 3° |
| 2026-04-30 17:48 | -28.90942 | 26.36389 | 26194 ft | 197 kts | 4° |
| 2026-04-30 17:49 | -28.85678 | 26.38130 | 26186 ft | 198 kts | 4° |
| 2026-04-30 17:50 | -28.80365 | 26.39883 | 26167 ft | 199 kts | 4° |
| 2026-04-30 17:51 | -28.76369 | 26.41200 | 26153 ft | 200 kts | 4° |
| 2026-04-30 17:52 | -28.72321 | 26.42529 | 26160 ft | 203 kts | 4° |
| 2026-04-30 17:53 | -28.65507 | 26.44767 | 26160 ft | 204 kts | 4° |
| 2026-04-30 17:54 | -28.60026 | 26.46571 | 26156 ft | 205 kts | 5° |
| 2026-04-30 17:55 | -28.54547 | 26.48372 | 26154 ft | 205 kts | 5° |
| 2026-04-30 17:56 | -28.49085 | 26.50170 | 26155 ft | 204 kts | 4° |
| 2026-04-30 17:57 | -28.44980 | 26.51500 | 26154 ft | 206 kts | 5° |
| 2026-04-30 17:58 | -28.40828 | 26.52862 | 26144 ft | 209 kts | 5° |
| 2026-04-30 17:59 | -28.35216 | 26.54696 | 26147 ft | 212 kts | 5° |
| 2026-04-30 18:00 | -28.29480 | 26.56571 | 26145 ft | 216 kts | 5° |
| 2026-04-30 18:00 | -28.25104 | 26.57998 | 26149 ft | 221 kts | 4° |
| 2026-04-30 18:01 | -28.22152 | 26.58962 | 26147 ft | 221 kts | 4° |
| 2026-04-30 18:02 | -28.17723 | 26.60406 | 26138 ft | 222 kts | 4° |
| 2026-04-30 18:02 | -28.13235 | 26.61863 | 26140 ft | 225 kts | 4° |
| 2026-04-30 18:03 | -28.08709 | 26.63335 | 26138 ft | 228 kts | 4° |
| 2026-04-30 18:04 | -28.04109 | 26.64829 | 26140 ft | 230 kts | 4° |
| 2026-04-30 18:05 | -27.98044 | 26.67622 | 26138 ft | 248 kts | 21° |
| 2026-04-30 18:06 | -27.92109 | 26.71705 | 26118 ft | 252 kts | 19° |
| 2026-04-30 18:07 | -27.86087 | 26.75851 | 26137 ft | 255 kts | 19° |
| 2026-04-30 18:08 | -27.81530 | 26.79000 | 26140 ft | 258 kts | 19° |
| 2026-04-30 18:09 | -27.75355 | 26.83269 | 26141 ft | 261 kts | 19° |
| 2026-04-30 18:10 | -27.69151 | 26.87551 | 26134 ft | 262 kts | 18° |
| 2026-04-30 18:11 | -27.62917 | 26.91845 | 26141 ft | 262 kts | 18° |
| 2026-04-30 18:11 | -27.58269 | 26.95044 | 26141 ft | 261 kts | 18° |
| 2026-04-30 18:12 | -27.53618 | 26.98240 | 26144 ft | 261 kts | 18° |
| 2026-04-30 18:13 | -27.50520 | 27.00367 | 26144 ft | 261 kts | 18° |
| 2026-04-30 18:13 | -27.46409 | 27.03187 | 26155 ft | 260 kts | 18° |
| 2026-04-30 18:14 | -27.42790 | 27.05669 | 26146 ft | 260 kts | 18° |
| 2026-04-30 18:15 | -27.38153 | 27.08845 | 26146 ft | 260 kts | 18° |
| 2026-04-30 18:15 | -27.33533 | 27.12005 | 26155 ft | 260 kts | 18° |
| 2026-04-30 18:16 | -27.30442 | 27.14119 | 26165 ft | 260 kts | 18° |
| 2026-04-30 18:16 | -27.27349 | 27.16234 | 26146 ft | 259 kts | 18° |
| 2026-04-30 18:17 | -27.25813 | 27.17284 | 26149 ft | 258 kts | 18° |
| 2026-04-30 18:17 | -27.24276 | 27.18334 | 26153 ft | 258 kts | 18° |
| 2026-04-30 18:17 | -27.21203 | 27.20429 | 26158 ft | 258 kts | 18° |
| 2026-04-30 18:18 | -27.19665 | 27.21478 | 26158 ft | 258 kts | 18° |
| 2026-04-30 18:18 | -27.18128 | 27.22525 | 26159 ft | 258 kts | 18° |
| 2026-04-30 18:18 | -27.16586 | 27.23575 | 26167 ft | 259 kts | 18° |
| 2026-04-30 18:18 | -27.15048 | 27.24623 | 26167 ft | 259 kts | 18° |
| 2026-04-30 18:19 | -27.13509 | 27.25671 | 26168 ft | 259 kts | 18° |
| 2026-04-30 18:19 | -27.11965 | 27.26723 | 26166 ft | 259 kts | 18° |
| 2026-04-30 18:19 | -27.10439 | 27.27762 | 26166 ft | 259 kts | 18° |
| 2026-04-30 18:19 | -27.08896 | 27.28812 | 26167 ft | 259 kts | 18° |
| 2026-04-30 18:20 | -27.07352 | 27.29862 | 26167 ft | 259 kts | 18° |
| 2026-04-30 18:20 | -27.05813 | 27.30909 | 26167 ft | 259 kts | 18° |
| 2026-04-30 18:20 | -27.04276 | 27.31954 | 26167 ft | 259 kts | 18° |
| 2026-04-30 18:20 | -27.02738 | 27.32999 | 26168 ft | 259 kts | 18° |
| 2026-04-30 18:21 | -27.01195 | 27.34047 | 26170 ft | 258 kts | 18° |
| 2026-04-30 18:21 | -26.99655 | 27.35093 | 26168 ft | 259 kts | 18° |
| 2026-04-30 18:21 | -26.98114 | 27.36139 | 26155 ft | 258 kts | 18° |
| 2026-04-30 18:21 | -26.96598 | 27.37168 | 26166 ft | 258 kts | 18° |
| 2026-04-30 18:22 | -26.95060 | 27.38213 | 26171 ft | 258 kts | 18° |
| 2026-04-30 18:22 | -26.91991 | 27.40294 | 26174 ft | 258 kts | 18° |
| 2026-04-30 18:22 | -26.90455 | 27.41335 | 26175 ft | 258 kts | 18° |
| 2026-04-30 18:23 | -26.88919 | 27.42376 | 26176 ft | 258 kts | 18° |
| 2026-04-30 18:23 | -26.87384 | 27.43414 | 26175 ft | 258 kts | 18° |
| 2026-04-30 18:23 | -26.85848 | 27.44455 | 26179 ft | 258 kts | 18° |
| 2026-04-30 18:23 | -26.84313 | 27.45494 | 26177 ft | 258 kts | 18° |
| 2026-04-30 18:24 | -26.81259 | 27.47562 | 26174 ft | 258 kts | 18° |
| 2026-04-30 18:24 | -26.79725 | 27.48599 | 26178 ft | 258 kts | 18° |
| 2026-04-30 18:24 | -26.78189 | 27.49638 | 26179 ft | 257 kts | 18° |
| 2026-04-30 18:25 | -26.76660 | 27.50671 | 26183 ft | 257 kts | 18° |
| 2026-04-30 18:25 | -26.73592 | 27.52743 | 26188 ft | 257 kts | 18° |
| 2026-04-30 18:25 | -26.72052 | 27.53783 | 26187 ft | 258 kts | 18° |
| 2026-04-30 18:26 | -26.68996 | 27.55845 | 26184 ft | 258 kts | 18° |
| 2026-04-30 18:26 | -26.67462 | 27.56880 | 26187 ft | 258 kts | 18° |
| 2026-04-30 18:26 | -26.65928 | 27.57915 | 26178 ft | 258 kts | 18° |
| 2026-04-30 18:27 | -26.62966 | 27.59912 | 26194 ft | 257 kts | 18° |
| 2026-04-30 18:27 | -26.61438 | 27.60942 | 26198 ft | 256 kts | 19° |
| 2026-04-30 18:28 | -26.58351 | 27.63012 | 25892 ft | 265 kts | 19° |
| 2026-04-30 18:28 | -26.56755 | 27.64084 | 25593 ft | 270 kts | 19° |
| 2026-04-30 18:28 | -26.53516 | 27.66270 | 24997 ft | 272 kts | 20° |
| 2026-04-30 18:29 | -26.51996 | 27.67258 | 24734 ft | 266 kts | 15° |
| 2026-04-30 18:29 | -26.46848 | 27.68509 | 23878 ft | 249 kts | 359° |
| 2026-04-30 18:30 | -26.44004 | 27.69026 | 23336 ft | 250 kts | 359° |
| 2026-04-30 18:30 | -26.40002 | 27.69763 | 22601 ft | 250 kts | 360° |
| 2026-04-30 18:31 | -26.38277 | 27.70081 | 22296 ft | 251 kts | 0° |
| 2026-04-30 18:31 | -26.34848 | 27.70725 | 21686 ft | 249 kts | 0° |
| 2026-04-30 18:32 | -26.31393 | 27.71371 | 21107 ft | 263 kts | 1° |
| 2026-04-30 18:32 | -26.29655 | 27.71686 | 20822 ft | 248 kts | 0° |
| 2026-04-30 18:32 | -26.26243 | 27.72368 | 20261 ft | 254 kts | 1° |
| 2026-04-30 18:33 | -26.24505 | 27.72710 | 19988 ft | 257 kts | 2° |
| 2026-04-30 18:33 | -26.21063 | 27.73360 | 19438 ft | 252 kts | 0° |
| 2026-04-30 18:33 | -26.19325 | 27.73673 | 19173 ft | 253 kts | 1° |
| 2026-04-30 18:34 | -26.17621 | 27.74018 | 18896 ft | 247 kts | 1° |
| 2026-04-30 18:34 | -26.14185 | 27.74598 | 18339 ft | 263 kts | 1° |
| 2026-04-30 18:34 | -26.12349 | 27.74952 | 18030 ft | 260 kts | 2° |
| 2026-04-30 18:35 | -26.10577 | 27.75311 | 17718 ft | 260 kts | 2° |
| 2026-04-30 18:35 | -26.08839 | 27.75677 | 17411 ft | 257 kts | 2° |
| 2026-04-30 18:35 | -26.07123 | 27.75992 | 17120 ft | 248 kts | 1° |
| 2026-04-30 18:36 | -26.03947 | 27.76535 | 16541 ft | 234 kts | 0° |
| 2026-04-30 18:36 | -26.02350 | 27.76819 | 16253 ft | 230 kts | 0° |
| 2026-04-30 18:36 | -25.99272 | 27.77314 | 15683 ft | 227 kts | 1° |
| 2026-04-30 18:37 | -25.97669 | 27.77604 | 15422 ft | 235 kts | 2° |
| 2026-04-30 18:37 | -25.95986 | 27.77925 | 15178 ft | 257 kts | 2° |
| 2026-04-30 18:37 | -25.94862 | 27.78162 | 14986 ft | 247 kts | 4° |
| 2026-04-30 18:37 | -25.92563 | 27.78632 | 14582 ft | 257 kts | 3° |
| 2026-04-30 18:38 | -25.90906 | 27.78940 | 14285 ft | 232 kts | 2° |
| 2026-04-30 18:38 | -25.89783 | 27.79105 | 14093 ft | 247 kts | 1° |
| 2026-04-30 18:38 | -25.88073 | 27.79392 | 13772 ft | 248 kts | 4° |
| 2026-04-30 18:38 | -25.85951 | 27.79819 | 13361 ft | 245 kts | 4° |
| 2026-04-30 18:39 | -25.84816 | 27.80044 | 13135 ft | 252 kts | 4° |
| 2026-04-30 18:39 | -25.83115 | 27.80366 | 12819 ft | 246 kts | 5° |
| 2026-04-30 18:39 | -25.81423 | 27.80690 | 12493 ft | 247 kts | 4° |
| 2026-04-30 18:39 | -25.79752 | 27.80965 | 12171 ft | 241 kts | 3° |
| 2026-04-30 18:40 | -25.78114 | 27.81265 | 11864 ft | 239 kts | 5° |
| 2026-04-30 18:40 | -25.76627 | 27.81561 | 11578 ft | 238 kts | 5° |
| 2026-04-30 18:40 | -25.74987 | 27.81875 | 11275 ft | 238 kts | 4° |
| 2026-04-30 18:40 | -25.73355 | 27.82173 | 10993 ft | 237 kts | 5° |
| 2026-04-30 18:41 | -25.71744 | 27.82482 | 10710 ft | 233 kts | 5° |
| 2026-04-30 18:41 | -25.70133 | 27.82799 | 10431 ft | 236 kts | 7° |
| 2026-04-30 18:41 | -25.68638 | 27.83568 | 10147 ft | 241 kts | 33° |
| 2026-04-30 18:41 | -25.67634 | 27.85077 | 9843 ft | 251 kts | 64° |
| 2026-04-30 18:42 | -25.67383 | 27.87001 | 9537 ft | 257 kts | 84° |
| 2026-04-30 18:42 | -25.67206 | 27.90959 | 8935 ft | 257 kts | 83° |
| 2026-04-30 18:42 | -25.67097 | 27.92927 | 8641 ft | 257 kts | 83° |
| 2026-04-30 18:45 | -25.64820 | 28.09158 | 5746 ft | 159 kts | 89° |
| 2026-04-30 18:45 | -25.64844 | 28.10324 | 5757 ft | 144 kts | 83° |
| 2026-04-30 18:45 | -25.64867 | 28.11387 | 5772 ft | 130 kts | 85° |
| 2026-04-30 18:46 | -25.64923 | 28.12334 | 5782 ft | 118 kts | 89° |
| 2026-04-30 18:46 | -25.64974 | 28.13245 | 5689 ft | 112 kts | 85° |
| 2026-04-30 18:46 | -25.64998 | 28.14126 | 5559 ft | 117 kts | 82° |
| 2026-04-30 18:46 | -25.65055 | 28.15013 | 5456 ft | 117 kts | 85° |
| 2026-04-30 18:47 | -25.65091 | 28.15932 | 5324 ft | 121 kts | 82° |
| 2026-04-30 18:47 | -25.65117 | 28.16887 | 5108 ft | 127 kts | 82° |
| 2026-04-30 18:47 | -25.65164 | 28.17878 | 4903 ft | 129 kts | 85° |
| 2026-04-30 18:47 | -25.65211 | 28.18843 | 4717 ft | 120 kts | 88° |
| 2026-04-30 18:48 | -25.65235 | 28.19770 | 4453 ft | 118 kts | 90° |
| 2026-04-30 18:48 | -25.65275 | 28.20672 | 4242 ft | 115 kts | 88° |
| 2026-04-30 18:48 | -25.65315 | 28.21488 | 4111 ft | 96 kts | 87° |
| 2026-04-30 18:48 | -25.65326 | 28.22132 | 4102 ft | 72 kts | 92° |
| 2026-04-30 18:49 | -25.65360 | 28.22589 | 4096 ft | 39 kts | 92° |
| 2026-04-30 18:49 | -25.65371 | 28.22818 | 4098 ft | 28 kts | 97° |
| 2026-04-30 18:49 | -25.65377 | 28.23006 | 4097 ft | 23 kts | 93° |
| 2026-04-30 18:49 | -25.65433 | 28.23091 | 4098 ft | 13 kts | 180° |
| 2026-04-30 18:50 | -25.65486 | 28.23012 | 4098 ft | 15 kts | 259° |
| 2026-04-30 18:50 | -25.65488 | 28.22892 | 4098 ft | 16 kts | 273° |
| 2026-04-30 18:50 | -25.65482 | 28.22765 | 4098 ft | 17 kts | 273° |
| 2026-04-30 18:50 | -25.65476 | 28.22633 | 4098 ft | 18 kts | 273° |
| 2026-04-30 18:51 | -25.65468 | 28.22497 | 4098 ft | 18 kts | 274° |
| 2026-04-30 18:51 | -25.65462 | 28.22361 | 4099 ft | 18 kts | 272° |
| 2026-04-30 18:51 | -25.65456 | 28.22234 | 4098 ft | 18 kts | 274° |
| 2026-04-30 18:51 | -25.65447 | 28.22093 | 4098 ft | 18 kts | 265° |
| 2026-04-30 18:52 | -25.65446 | 28.21952 | 4098 ft | 18 kts | 274° |
| 2026-04-30 18:52 | -25.65440 | 28.21809 | 4098 ft | 19 kts | 275° |
| 2026-04-30 18:52 | -25.65437 | 28.21704 | 4098 ft | 11 kts | 259° |
| 2026-04-30 18:52 | -25.65455 | 28.21611 | 4098 ft | 13 kts | 252° |
| 2026-04-30 18:53 | -25.65494 | 28.21511 | 4098 ft | 15 kts | 265° |
| 2026-04-30 18:53 | -25.65436 | 28.21417 | 4098 ft | 15 kts | 313° |
| 2026-04-30 18:53 | -25.65367 | 28.21333 | 4099 ft | 12 kts | 308° |
| 2026-04-30 18:53 | -25.65414 | 28.21283 | 4098 ft | 12 kts | 184° |
| 2026-04-30 18:54 | -25.65491 | 28.21306 | 4098 ft | 12 kts | 141° |
| 2026-04-30 18:54 | -25.65550 | 28.21359 | 4098 ft | 6 kts | 137° |
| 2026-04-30 18:54 | -25.65571 | 28.21399 | 4098 ft | 7 kts | 120° |
| 2026-04-30 18:54 | -25.65587 | 28.21391 | 4098 ft | 0 kts | 324° |